createdAt,value
2022-12-28T00:01:31.443Z,7.13
2022-12-28T00:03:03.641Z,7.07
2022-12-28T00:04:35.751Z,7.07
2022-12-28T00:06:08.083Z,7.06
2022-12-28T00:07:40.066Z,7.04
2022-12-28T00:09:13.168Z,7.05
2022-12-28T00:11:08.663Z,7.03
2022-12-28T00:12:37.194Z,7.05
2022-12-28T00:14:09.327Z,7.06
2022-12-28T00:17:13.287Z,6.98
2022-12-28T00:18:45.287Z,7.03
2022-12-28T00:20:17.385Z,7.01
2022-12-28T00:21:49.370Z,7.00
2022-12-28T00:23:21.403Z,7.01
2022-12-28T00:24:53.435Z,7.01
2022-12-28T00:26:27.638Z,7.05
2022-12-28T00:27:59.646Z,7.05
2022-12-28T00:29:31.812Z,7.05
2022-12-28T00:31:04.366Z,7.06
2022-12-28T00:32:36.330Z,7.07
2022-12-28T00:34:08.377Z,7.03
2022-12-28T00:35:40.517Z,7.04
2022-12-28T00:37:13.315Z,7.02
2022-12-28T00:38:45.540Z,7.02
2022-12-28T00:40:23.912Z,7.01
2022-12-28T00:41:56.302Z,7.01
2022-12-28T00:43:28.631Z,6.99
2022-12-28T00:45:00.702Z,7.00
2022-12-28T00:46:32.729Z,6.99
2022-12-28T00:48:05.144Z,6.97
2022-12-28T00:49:37.344Z,6.96
2022-12-28T00:51:14.364Z,6.99
2022-12-28T00:52:46.394Z,6.94
2022-12-28T00:54:18.423Z,6.96
2022-12-28T00:55:50.443Z,6.94
2022-12-28T00:57:25.147Z,6.91
2022-12-28T00:58:58.342Z,6.91
2022-12-28T01:00:33.490Z,6.94
2022-12-28T01:02:05.712Z,6.88
2022-12-28T01:03:37.852Z,6.89
2022-12-28T01:05:10.241Z,6.89
2022-12-28T01:06:42.224Z,6.88
2022-12-28T01:08:14.492Z,6.91
2022-12-28T01:09:46.601Z,6.84
2022-12-28T01:11:21.567Z,6.87
2022-12-28T01:12:54.867Z,6.88
2022-12-28T01:16:01.914Z,6.85
2022-12-28T01:17:34.087Z,6.86
2022-12-28T01:19:07.705Z,6.88
2022-12-28T01:20:40.785Z,6.87
2022-12-28T01:22:15.317Z,6.87
2022-12-28T01:23:48.837Z,6.88
2022-12-28T01:25:20.821Z,6.94
2022-12-28T01:26:52.904Z,6.89
2022-12-28T01:28:24.971Z,6.90
2022-12-28T01:29:57.060Z,6.91
2022-12-28T01:31:29.040Z,6.90
2022-12-28T01:33:01.001Z,6.92
2022-12-28T01:34:33.260Z,6.92
2022-12-28T01:36:09.514Z,6.97
2022-12-28T01:37:41.542Z,6.99
2022-12-28T01:39:14.248Z,7.04
2022-12-28T01:40:46.253Z,7.06
2022-12-28T01:42:19.544Z,7.09
2022-12-28T01:43:59.308Z,7.05
2022-12-28T01:45:31.337Z,7.15
2022-12-28T01:47:08.887Z,7.25
2022-12-28T01:48:46.790Z,7.25
2022-12-28T01:50:22.919Z,7.29
2022-12-28T01:52:01.254Z,7.33
2022-12-28T01:53:33.234Z,7.33
2022-12-28T01:55:15.411Z,7.40
2022-12-28T01:56:47.857Z,7.37
2022-12-28T01:58:26.326Z,7.37
2022-12-28T02:00:05.502Z,7.35
2022-12-28T02:01:38.016Z,7.28
2022-12-28T02:03:26.820Z,7.28
2022-12-28T02:05:00.600Z,7.23
2022-12-28T02:06:33.057Z,7.19
2022-12-28T02:08:11.289Z,7.19
2022-12-28T02:09:44.352Z,7.14
2022-12-28T02:11:37.251Z,7.09
2022-12-28T02:13:10.123Z,7.08
2022-12-28T02:14:43.188Z,7.04
2022-12-28T02:16:15.354Z,6.98
2022-12-28T02:17:47.393Z,6.96
2022-12-28T02:19:22.974Z,6.97
2022-12-28T02:21:09.789Z,6.96
2022-12-28T02:22:59.874Z,6.96
2022-12-28T02:24:43.993Z,6.96
2022-12-28T02:26:34.618Z,6.91
2022-12-28T02:28:38.688Z,6.95
2022-12-28T02:30:12.012Z,6.86
2022-12-28T02:32:00.453Z,6.85
2022-12-28T02:33:43.545Z,6.82
2022-12-28T02:35:29.911Z,6.77
2022-12-28T02:37:17.125Z,6.75
2022-12-28T02:38:53.857Z,6.67
2022-12-28T02:40:58.272Z,6.63
2022-12-28T02:42:30.905Z,6.55
2022-12-28T02:44:03.289Z,6.50
2022-12-28T02:45:58.798Z,6.48
2022-12-28T02:47:49.253Z,6.41
2022-12-28T02:49:44.660Z,6.40
2022-12-28T02:51:48.127Z,6.36
2022-12-28T02:53:35.246Z,6.35
2022-12-28T02:55:44.587Z,6.28
2022-12-28T02:57:28.899Z,6.25
2022-12-28T03:00:57.068Z,6.18
2022-12-28T03:02:40.271Z,6.13
2022-12-28T03:04:33.469Z,6.04
2022-12-28T03:06:40.256Z,5.97
2022-12-28T03:08:22.756Z,5.91
2022-12-28T03:10:06.815Z,5.78
2022-12-28T03:11:41.413Z,5.72
2022-12-28T03:13:45.958Z,5.72
2022-12-28T03:15:34.851Z,5.70
2022-12-28T03:17:26.020Z,5.66
2022-12-28T03:19:22.847Z,5.67
2022-12-28T03:21:14.512Z,5.66
2022-12-28T03:23:05.320Z,5.61
2022-12-28T03:24:56.567Z,5.57
2022-12-28T03:26:48.275Z,5.51
2022-12-28T03:28:20.402Z,5.45
2022-12-28T03:30:20.012Z,5.51
2022-12-28T03:31:52.045Z,5.33
2022-12-28T03:33:24.110Z,5.20
2022-12-28T03:34:56.187Z,5.10
2022-12-28T03:37:04.834Z,5.10
2022-12-28T03:38:48.087Z,5.01
2022-12-28T03:40:48.870Z,4.97
2022-12-28T03:43:02.856Z,4.98
2022-12-28T03:44:35.645Z,4.96
2022-12-28T03:46:46.590Z,5.02
2022-12-28T03:48:18.718Z,4.95
2022-12-28T03:49:50.722Z,4.92
2022-12-28T03:51:24.550Z,4.87
2022-12-28T03:52:59.013Z,4.79
2022-12-28T03:54:31.092Z,4.73
2022-12-28T03:56:17.075Z,4.80
2022-12-28T03:59:20.746Z,4.79
2022-12-28T04:00:52.762Z,4.79
2022-12-28T04:02:24.850Z,4.79
2022-12-28T04:03:56.928Z,4.79
2022-12-28T04:05:28.887Z,4.79
2022-12-28T04:07:00.929Z,4.78
2022-12-28T04:08:33.995Z,4.78
2022-12-28T04:10:06.334Z,4.75
2022-12-28T04:11:38.357Z,4.75
2022-12-28T04:13:10.376Z,4.76
2022-12-28T04:14:42.360Z,4.73
2022-12-28T04:16:15.134Z,4.70
2022-12-28T04:17:47.238Z,4.57
2022-12-28T04:19:19.355Z,4.56
2022-12-28T04:20:51.686Z,4.57
2022-12-28T04:22:23.650Z,4.59
2022-12-28T04:23:55.814Z,4.61
2022-12-28T04:25:27.794Z,4.61
2022-12-28T04:27:00.044Z,4.63
2022-12-28T04:28:33.316Z,4.62
2022-12-28T04:30:06.030Z,4.62
2022-12-28T04:31:38.213Z,4.65
2022-12-28T04:33:10.339Z,4.65
2022-12-28T04:34:48.206Z,4.67
2022-12-28T04:36:20.908Z,4.70
2022-12-28T04:37:52.914Z,4.64
2022-12-28T04:39:24.964Z,4.60
2022-12-28T04:40:57.001Z,4.50
2022-12-28T04:42:29.192Z,4.44
2022-12-28T04:44:03.899Z,4.37
2022-12-28T04:45:36.081Z,4.33
2022-12-28T04:47:08.136Z,4.31
2022-12-28T04:48:40.279Z,4.31
2022-12-28T04:50:12.387Z,4.33
2022-12-28T04:51:47.628Z,4.33
2022-12-28T04:53:19.821Z,4.31
2022-12-28T04:54:51.971Z,4.29
2022-12-28T04:56:25.372Z,4.30
2022-12-28T04:57:57.478Z,4.22
2022-12-28T04:59:29.518Z,4.14
2022-12-28T05:01:10.379Z,4.17
2022-12-28T05:02:46.228Z,4.14
2022-12-28T05:04:18.720Z,4.16
2022-12-28T05:05:50.708Z,4.18
2022-12-28T05:07:22.986Z,4.17
2022-12-28T05:08:56.061Z,4.19
2022-12-28T05:10:28.965Z,4.22
2022-12-28T05:12:00.935Z,4.20
2022-12-28T05:13:33.767Z,4.14
2022-12-28T05:15:06.564Z,4.07
2022-12-28T05:16:39.183Z,4.07
2022-12-28T05:18:11.263Z,4.06
2022-12-28T05:19:43.288Z,4.09
2022-12-28T05:21:17.932Z,4.14
2022-12-28T05:22:50.186Z,4.11
2022-12-28T05:24:22.267Z,4.11
2022-12-28T05:25:54.683Z,4.09
2022-12-28T05:27:26.751Z,4.03
2022-12-28T05:28:59.252Z,3.98
2022-12-28T05:30:31.244Z,3.91
2022-12-28T05:32:03.219Z,3.84
2022-12-28T05:33:36.423Z,3.78
2022-12-28T05:35:09.030Z,3.74
2022-12-28T05:36:41.104Z,3.69
2022-12-28T05:38:13.120Z,3.65
2022-12-28T05:39:45.135Z,3.64
2022-12-28T05:41:19.262Z,3.67
2022-12-28T05:42:51.856Z,3.68
2022-12-28T05:44:23.991Z,3.68
2022-12-28T05:46:01.162Z,3.70
2022-12-28T05:47:33.152Z,3.70
2022-12-28T05:49:08.644Z,3.72
2022-12-28T05:50:41.220Z,3.65
2022-12-28T05:52:13.280Z,3.64
2022-12-28T05:53:45.340Z,3.63
2022-12-28T05:55:17.390Z,3.63
2022-12-28T05:56:51.928Z,3.62
2022-12-28T05:58:23.965Z,3.57
2022-12-28T05:59:56.066Z,3.53
2022-12-28T06:01:33.270Z,3.56
2022-12-28T06:03:05.440Z,3.48
2022-12-28T06:04:37.439Z,3.43
2022-12-28T06:06:14.743Z,3.43
2022-12-28T06:07:46.727Z,3.42
2022-12-28T06:09:18.744Z,3.43
2022-12-28T06:10:50.736Z,3.45
2022-12-28T06:12:22.876Z,3.45
2022-12-28T06:13:55.508Z,3.46
2022-12-28T06:15:27.916Z,3.44
2022-12-28T06:16:59.914Z,3.42
2022-12-28T06:18:32.165Z,3.39
2022-12-28T06:20:04.448Z,3.35
2022-12-28T06:21:38.578Z,3.35
2022-12-28T06:23:10.837Z,3.33
2022-12-28T06:24:42.836Z,3.29
2022-12-28T06:26:17.517Z,3.23
2022-12-28T06:27:49.566Z,3.19
2022-12-28T06:29:21.699Z,3.18
2022-12-28T06:30:54.088Z,3.12
2022-12-28T06:32:26.091Z,3.13
2022-12-28T06:33:59.900Z,3.12
2022-12-28T06:35:31.918Z,3.09
2022-12-28T06:37:04.546Z,3.08
2022-12-28T06:38:36.539Z,3.10
2022-12-28T06:40:09.019Z,3.12
2022-12-28T06:41:41.798Z,3.15
2022-12-28T06:43:13.843Z,3.10
2022-12-28T06:44:45.807Z,3.06
2022-12-28T06:46:19.511Z,3.03
2022-12-28T06:47:51.609Z,3.03
2022-12-28T06:49:23.649Z,3.02
2022-12-28T06:51:04.122Z,3.06
2022-12-28T06:52:36.165Z,2.96
2022-12-28T06:54:09.207Z,2.90
2022-12-28T06:55:41.210Z,2.89
2022-12-28T06:57:13.245Z,2.88
2022-12-28T06:58:46.015Z,2.90
2022-12-28T07:00:21.052Z,2.93
2022-12-28T07:01:53.394Z,2.92
2022-12-28T07:03:25.604Z,2.96
2022-12-28T07:04:57.576Z,2.99
2022-12-28T07:06:30.769Z,3.02
2022-12-28T07:08:07.671Z,3.01
2022-12-28T07:09:42.796Z,3.07
2022-12-28T07:11:18.308Z,3.11
2022-12-28T07:12:50.460Z,3.11
2022-12-28T07:14:22.558Z,3.14
2022-12-28T07:15:54.690Z,3.20
2022-12-28T07:17:26.739Z,3.25
2022-12-28T07:18:59.891Z,3.28
2022-12-28T07:20:37.034Z,3.29
2022-12-28T07:22:12.155Z,3.29
2022-12-28T07:23:44.197Z,3.30
2022-12-28T07:25:16.465Z,3.33
2022-12-28T07:26:48.711Z,3.36
2022-12-28T07:28:20.743Z,3.38
2022-12-28T07:29:55.733Z,3.39
2022-12-28T07:31:30.321Z,3.39
2022-12-28T07:33:02.268Z,3.39
2022-12-28T07:34:34.322Z,3.40
2022-12-28T07:36:08.587Z,3.42
2022-12-28T07:37:40.597Z,3.43
2022-12-28T07:39:12.709Z,3.43
2022-12-28T07:40:44.731Z,3.44
2022-12-28T07:42:16.883Z,3.49
2022-12-28T07:43:49.775Z,3.54
2022-12-28T07:45:21.821Z,3.57
2022-12-28T07:46:53.812Z,3.60
2022-12-28T07:48:25.801Z,3.63
2022-12-28T07:49:57.796Z,3.65
2022-12-28T07:51:35.309Z,3.74
2022-12-28T07:53:07.390Z,3.76
2022-12-28T07:54:39.400Z,3.77
2022-12-28T07:56:12.059Z,3.87
2022-12-28T07:57:44.076Z,3.93
2022-12-28T07:59:16.082Z,3.98
2022-12-28T08:02:21.048Z,4.02
2022-12-28T08:03:56.645Z,4.09
2022-12-28T08:05:28.771Z,4.13
2022-12-28T08:07:00.962Z,4.12
2022-12-28T08:08:38.250Z,4.13
2022-12-28T08:10:10.484Z,4.17
2022-12-28T08:11:44.818Z,4.25
2022-12-28T08:13:17.061Z,4.23
2022-12-28T08:14:49.044Z,4.32
2022-12-28T08:16:22.515Z,4.40
2022-12-28T08:17:55.843Z,4.45
2022-12-28T08:19:27.999Z,4.49
2022-12-28T08:21:05.029Z,4.57
2022-12-28T08:22:37.035Z,4.57
2022-12-28T08:24:10.713Z,4.69
2022-12-28T08:25:45.664Z,4.73
2022-12-28T08:27:18.089Z,4.78
2022-12-28T08:28:53.095Z,4.85
2022-12-28T08:30:25.204Z,4.88
2022-12-28T08:31:57.250Z,4.92
2022-12-28T08:33:29.356Z,4.95
2022-12-28T08:35:01.463Z,5.01
2022-12-28T08:36:33.724Z,5.04
2022-12-28T08:38:05.781Z,5.10
2022-12-28T08:39:37.777Z,5.15
2022-12-28T08:41:13.993Z,5.24
2022-12-28T08:42:46.012Z,5.26
2022-12-28T08:44:18.053Z,5.30
2022-12-28T08:46:18.406Z,5.42
2022-12-28T08:47:50.626Z,5.42
2022-12-28T08:49:22.660Z,5.46
2022-12-28T08:50:55.761Z,5.55
2022-12-28T08:52:27.974Z,5.59
2022-12-28T08:54:00.449Z,5.63
2022-12-28T08:55:33.109Z,5.64
2022-12-28T08:57:05.212Z,5.71
2022-12-28T08:58:40.694Z,5.77
2022-12-28T09:00:13.225Z,5.80
2022-12-28T09:01:46.585Z,5.88
2022-12-28T09:03:18.727Z,5.99
2022-12-28T09:06:26.593Z,6.03
2022-12-28T09:07:59.818Z,6.04
2022-12-28T09:09:32.101Z,6.10
2022-12-28T09:11:08.637Z,6.18
2022-12-28T09:12:40.652Z,6.18
2022-12-28T09:14:20.703Z,6.27
2022-12-28T09:16:00.012Z,6.36
2022-12-28T09:17:32.104Z,6.38
2022-12-28T09:19:06.553Z,6.48
2022-12-28T09:20:43.130Z,6.50
2022-12-28T09:22:18.114Z,6.56
2022-12-28T09:23:50.208Z,6.58
2022-12-28T09:25:22.250Z,6.63
2022-12-28T09:26:55.744Z,6.69
2022-12-28T09:28:27.545Z,6.82
2022-12-28T09:29:59.537Z,6.82
2022-12-28T09:31:33.232Z,6.86
2022-12-28T09:33:23.813Z,6.92
2022-12-28T09:34:55.896Z,6.99
2022-12-28T09:36:42.267Z,7.10
2022-12-28T09:38:14.461Z,7.12
2022-12-28T09:39:47.851Z,7.18
2022-12-28T09:41:40.915Z,7.27
2022-12-28T09:43:13.403Z,7.29
2022-12-28T09:44:51.120Z,7.33
2022-12-28T09:46:23.424Z,7.40
2022-12-28T09:48:01.173Z,7.47
2022-12-28T09:49:41.031Z,7.55
2022-12-28T09:51:13.092Z,7.54
2022-12-28T09:53:03.811Z,7.63
2022-12-28T09:54:35.931Z,7.61
2022-12-28T09:56:26.018Z,7.67
2022-12-28T09:57:59.877Z,7.64
2022-12-28T09:59:34.721Z,7.64
2022-12-28T10:01:10.856Z,7.72
2022-12-28T10:02:43.580Z,7.73
2022-12-28T10:04:15.730Z,7.77
2022-12-28T10:05:48.277Z,7.81
2022-12-28T10:07:20.619Z,7.81
2022-12-28T10:10:32.156Z,7.90
2022-12-28T10:12:18.344Z,8.00
2022-12-28T10:14:01.956Z,8.03
2022-12-28T10:15:34.076Z,7.99
2022-12-28T10:17:10.701Z,8.02
2022-12-28T10:18:42.864Z,8.08
2022-12-28T10:20:21.317Z,8.15
2022-12-28T10:22:27.580Z,8.19
2022-12-28T10:25:54.412Z,8.24
2022-12-28T10:27:31.787Z,8.20
2022-12-28T10:29:03.929Z,8.19
2022-12-28T10:30:46.301Z,8.22
2022-12-28T10:32:21.173Z,8.22
2022-12-28T10:33:53.400Z,8.20
2022-12-28T10:35:31.056Z,8.26
2022-12-28T10:37:15.604Z,8.31
2022-12-28T10:38:53.263Z,8.32
2022-12-28T10:40:28.352Z,8.32
2022-12-28T10:42:01.294Z,8.32
2022-12-28T10:43:35.253Z,8.38
2022-12-28T10:45:19.992Z,8.42
2022-12-28T10:46:56.254Z,8.47
2022-12-28T10:48:32.389Z,8.45
2022-12-28T10:52:21.257Z,8.59
2022-12-28T10:53:58.264Z,8.56
2022-12-28T10:55:33.062Z,8.59
2022-12-28T10:57:05.605Z,8.60
2022-12-28T10:58:39.742Z,8.61
2022-12-28T11:00:20.587Z,8.66
2022-12-28T11:01:52.775Z,8.63
2022-12-28T11:03:30.889Z,8.67
2022-12-28T11:05:04.907Z,8.65
2022-12-28T11:06:51.397Z,8.70
2022-12-28T11:08:23.464Z,8.60
2022-12-28T11:10:32.867Z,8.63
2022-12-28T11:12:22.651Z,8.58
2022-12-28T11:14:13.084Z,8.58
2022-12-28T11:15:47.859Z,8.59
2022-12-28T11:17:27.991Z,8.68
2022-12-28T11:19:00.634Z,8.65
2022-12-28T11:20:34.797Z,8.66
2022-12-28T11:22:10.945Z,8.68
2022-12-28T11:23:44.483Z,8.63
2022-12-28T11:25:18.601Z,8.60
2022-12-28T11:26:51.118Z,8.59
2022-12-28T11:28:23.574Z,8.64
2022-12-28T11:29:56.088Z,8.66
2022-12-28T11:31:34.740Z,8.73
2022-12-28T11:33:10.334Z,8.75
2022-12-28T11:34:42.346Z,8.77
2022-12-28T11:36:19.192Z,8.83
2022-12-28T11:37:59.739Z,8.84
2022-12-28T11:39:33.015Z,8.80
2022-12-28T11:41:05.198Z,8.74
2022-12-28T11:42:39.413Z,8.78
2022-12-28T11:44:41.693Z,8.86
2022-12-28T11:46:22.768Z,8.87
2022-12-28T11:48:32.896Z,8.84
2022-12-28T11:50:38.650Z,8.88
2022-12-28T11:52:31.260Z,8.88
2022-12-28T11:54:39.079Z,8.87
2022-12-28T11:56:16.674Z,8.90
2022-12-28T11:57:48.821Z,8.83
2022-12-28T11:59:29.495Z,8.87
2022-12-28T12:01:02.718Z,8.81
2022-12-28T12:02:41.747Z,8.85
2022-12-28T12:04:19.995Z,8.86
2022-12-28T12:05:52.700Z,8.83
2022-12-28T12:07:31.498Z,8.88
2022-12-28T12:09:04.293Z,8.83
2022-12-28T12:10:39.160Z,8.85
2022-12-28T12:12:17.802Z,8.91
2022-12-28T12:13:51.406Z,8.86
2022-12-28T12:15:40.353Z,8.88
2022-12-28T12:17:43.131Z,8.91
2022-12-28T12:19:29.335Z,8.89
2022-12-28T12:21:13.300Z,8.83
2022-12-28T12:22:55.977Z,8.80
2022-12-28T12:24:33.094Z,8.77
2022-12-28T12:26:21.601Z,8.80
2022-12-28T12:28:09.148Z,8.79
2022-12-28T12:29:44.744Z,8.76
2022-12-28T12:31:26.211Z,8.81
2022-12-28T12:33:04.602Z,8.78
2022-12-28T12:34:45.960Z,8.78
2022-12-28T12:36:38.808Z,8.78
2022-12-28T12:38:26.645Z,8.74
2022-12-28T12:40:10.677Z,8.73
2022-12-28T12:43:30.876Z,8.71
2022-12-28T12:45:24.141Z,8.75
2022-12-28T12:47:47.289Z,8.76
2022-12-28T12:49:25.132Z,8.71
2022-12-28T12:51:20.319Z,8.71
2022-12-28T12:53:19.883Z,8.74
2022-12-28T12:55:13.785Z,8.77
2022-12-28T12:56:53.999Z,8.74
2022-12-28T12:58:29.911Z,8.76
2022-12-28T13:00:19.490Z,8.80
2022-12-28T13:02:16.644Z,8.81
2022-12-28T13:47:48.054Z,8.46
2022-12-28T13:49:20.651Z,8.45
2022-12-28T13:50:53.947Z,8.41
2022-12-28T13:52:29.437Z,8.45
2022-12-28T13:54:01.557Z,8.42
2022-12-28T13:55:43.376Z,8.42
2022-12-28T13:57:45.216Z,8.36
2022-12-28T13:59:11.190Z,8.34
2022-12-28T14:00:50.530Z,8.34
2022-12-28T14:02:23.894Z,8.31
2022-12-28T14:04:08.751Z,8.37
2022-12-28T14:05:55.532Z,8.35
2022-12-28T14:07:29.704Z,8.36
2022-12-28T14:09:05.698Z,8.35
2022-12-28T14:10:40.391Z,8.37
2022-12-28T14:12:13.533Z,8.38
2022-12-28T14:13:45.891Z,8.32
2022-12-28T14:15:18.618Z,8.35
2022-12-28T14:16:50.859Z,8.36
2022-12-28T14:18:22.984Z,8.32
2022-12-28T14:19:56.340Z,8.36
2022-12-28T14:21:36.711Z,8.36
2022-12-28T14:23:25.003Z,8.37
2022-12-28T14:25:13.375Z,8.39
2022-12-28T14:27:00.419Z,8.37
2022-12-28T14:28:36.277Z,8.37
2022-12-28T14:30:25.605Z,8.37
2022-12-28T14:32:02.646Z,8.37
2022-12-28T14:33:37.498Z,8.35
2022-12-28T14:35:18.532Z,8.36
2022-12-28T14:36:53.050Z,8.32
2022-12-28T14:38:30.735Z,8.36
2022-12-28T14:40:05.874Z,8.35
2022-12-28T14:41:41.217Z,8.32
2022-12-28T14:43:34.474Z,8.34
2022-12-28T14:46:07.691Z,8.33
2022-12-28T14:47:39.984Z,8.30
2022-12-28T14:49:44.604Z,8.27
2022-12-28T14:51:17.430Z,8.22
2022-12-28T14:52:51.130Z,8.22
2022-12-28T14:54:27.034Z,8.22
2022-12-28T14:56:09.105Z,8.21
2022-12-28T14:57:43.494Z,8.15
2022-12-28T14:59:24.064Z,8.14
2022-12-28T15:01:06.359Z,8.13
2022-12-28T15:02:41.430Z,8.10
2022-12-28T15:04:40.737Z,8.10
2022-12-28T15:06:12.935Z,8.05
2022-12-28T15:07:45.615Z,8.03
2022-12-28T15:09:18.602Z,8.03
2022-12-28T15:10:59.320Z,8.04
2022-12-28T15:12:31.282Z,7.98
2022-12-28T15:14:03.384Z,7.96
2022-12-28T15:15:35.670Z,7.95
2022-12-28T15:17:08.562Z,7.94
2022-12-28T15:18:47.255Z,7.93
2022-12-28T15:20:19.444Z,7.93
2022-12-28T15:21:51.499Z,7.91
2022-12-28T15:23:24.624Z,7.91
2022-12-28T15:24:56.703Z,7.88
2022-12-28T15:26:28.880Z,7.87
2022-12-28T15:28:01.008Z,7.85
2022-12-28T15:30:04.288Z,7.79
2022-12-28T15:31:25.207Z,7.74
2022-12-28T15:32:57.400Z,7.72
2022-12-28T15:34:29.587Z,7.68
2022-12-28T15:36:17.275Z,7.72
2022-12-28T15:37:50.069Z,7.66
2022-12-28T15:39:22.089Z,7.64
2022-12-28T15:40:56.727Z,7.63
2022-12-28T15:42:28.856Z,7.60
2022-12-28T15:44:00.913Z,7.61
2022-12-28T15:45:33.117Z,7.58
2022-12-28T15:47:05.284Z,7.60
2022-12-28T15:48:38.633Z,7.58
2022-12-28T15:50:13.622Z,7.58
2022-12-28T15:51:46.359Z,7.56
2022-12-28T15:53:18.445Z,7.53
2022-12-28T15:56:24.706Z,7.51
2022-12-28T15:57:56.960Z,7.58
2022-12-28T15:59:29.126Z,7.49
2022-12-28T16:01:03.717Z,7.50
2022-12-28T16:02:36.090Z,7.45
2022-12-28T16:04:08.237Z,7.45
2022-12-28T16:05:40.325Z,7.44
2022-12-28T16:07:12.455Z,7.43
2022-12-28T16:08:44.514Z,7.41
2022-12-28T16:10:16.614Z,7.38
2022-12-28T16:11:54.690Z,7.33
2022-12-28T16:13:27.292Z,7.29
2022-12-28T16:14:59.352Z,7.27
2022-12-28T16:16:35.050Z,7.27
2022-12-28T16:18:07.136Z,7.22
2022-12-28T16:19:39.198Z,7.19
2022-12-28T16:21:11.894Z,7.21
2022-12-28T16:22:43.913Z,7.19
2022-12-28T16:24:16.060Z,7.20
2022-12-28T16:25:51.174Z,7.22
2022-12-28T16:27:23.260Z,7.18
2022-12-28T16:28:55.542Z,7.19
2022-12-28T16:30:27.556Z,7.17
2022-12-28T16:32:00.841Z,7.17
2022-12-28T16:33:33.972Z,7.18
2022-12-28T16:35:06.213Z,7.13
2022-12-28T16:36:38.294Z,7.12
2022-12-28T16:38:10.335Z,7.09
2022-12-28T16:39:42.426Z,7.04
2022-12-28T16:41:14.646Z,7.02
2022-12-28T16:42:46.733Z,6.97
2022-12-28T16:44:21.242Z,6.96
2022-12-28T16:45:53.488Z,6.90
2022-12-28T16:47:25.568Z,6.86
2022-12-28T16:49:00.814Z,6.84
2022-12-28T16:50:33.671Z,6.79
2022-12-28T16:52:05.964Z,6.73
2022-12-28T16:53:38.197Z,6.71
2022-12-28T16:55:10.267Z,6.63
2022-12-28T16:56:43.035Z,6.61
2022-12-28T16:58:15.078Z,6.54
2022-12-28T16:59:47.052Z,6.48
2022-12-28T17:01:19.319Z,6.41
2022-12-28T17:02:51.657Z,6.36
2022-12-28T17:04:23.993Z,6.27
2022-12-28T17:05:56.020Z,6.20
2022-12-28T17:07:28.027Z,6.12
2022-12-28T17:10:42.165Z,6.06
2022-12-28T17:12:14.193Z,5.99
2022-12-28T17:13:46.257Z,5.94
2022-12-28T17:15:18.644Z,5.93
2022-12-28T17:16:50.747Z,5.87
2022-12-28T17:18:22.834Z,5.80
2022-12-28T17:19:54.882Z,5.76
2022-12-28T17:21:28.369Z,5.75
2022-12-28T17:23:00.273Z,5.78
2022-12-28T17:24:32.383Z,5.67
2022-12-28T17:26:04.587Z,5.65
2022-12-28T17:27:36.670Z,5.61
2022-12-28T17:29:08.915Z,5.56
2022-12-28T17:30:40.936Z,5.56
2022-12-28T17:32:13.019Z,5.53
2022-12-28T17:33:51.571Z,5.52
2022-12-28T17:35:24.412Z,5.49
2022-12-28T17:36:56.500Z,5.43
2022-12-28T17:38:29.601Z,5.43
2022-12-28T17:40:01.706Z,5.35
2022-12-28T17:41:33.916Z,5.27
2022-12-28T17:43:05.916Z,5.22
2022-12-28T17:44:38.455Z,5.14
2022-12-28T17:46:10.570Z,5.10
2022-12-28T17:47:43.149Z,5.10
2022-12-28T17:49:16.015Z,5.09
2022-12-28T17:50:48.523Z,5.05
2022-12-28T17:52:22.641Z,5.03
2022-12-28T17:53:56.031Z,5.01
2022-12-28T17:55:28.132Z,4.91
2022-12-28T17:57:00.267Z,4.84
2022-12-28T17:58:34.962Z,4.84
2022-12-28T18:00:07.664Z,4.78
2022-12-28T18:01:39.833Z,4.79
2022-12-28T18:03:11.960Z,4.73
2022-12-28T18:04:44.040Z,4.71
2022-12-28T18:06:16.133Z,4.66
2022-12-28T18:07:48.261Z,4.64
2022-12-28T18:09:25.671Z,4.59
2022-12-28T18:10:59.827Z,4.56
2022-12-28T18:12:31.921Z,4.57
2022-12-28T18:14:04.026Z,4.55
2022-12-28T18:15:36.394Z,4.54
2022-12-28T18:17:08.449Z,4.48
2022-12-28T18:18:40.577Z,4.40
2022-12-28T18:20:12.690Z,4.32
2022-12-28T18:21:45.245Z,4.28
2022-12-28T18:23:17.361Z,4.23
2022-12-28T18:24:50.894Z,4.18
2022-12-28T18:26:23.625Z,4.26
2022-12-28T18:27:55.663Z,4.18
2022-12-28T18:29:27.731Z,4.15
2022-12-28T18:31:02.350Z,4.14
2022-12-28T18:32:34.792Z,4.06
2022-12-28T18:34:07.684Z,3.99
2022-12-28T18:35:39.663Z,3.91
2022-12-28T18:37:11.833Z,3.85
2022-12-28T18:38:44.521Z,3.83
2022-12-28T18:40:16.850Z,3.84
2022-12-28T18:41:48.947Z,3.83
2022-12-28T18:43:21.422Z,3.85
2022-12-28T18:44:53.472Z,3.85
2022-12-28T18:46:25.609Z,3.80
2022-12-28T18:47:57.707Z,3.77
2022-12-28T18:49:29.892Z,3.73
2022-12-28T18:51:10.588Z,3.73
2022-12-28T18:52:42.819Z,3.68
2022-12-28T18:54:14.911Z,3.66
2022-12-28T18:55:47.026Z,3.64
2022-12-28T18:57:19.422Z,3.64
2022-12-28T18:58:53.167Z,3.68
2022-12-28T19:00:25.288Z,3.65
2022-12-28T19:02:06.933Z,3.66
2022-12-28T19:03:40.590Z,3.66
2022-12-28T19:05:12.728Z,3.66
2022-12-28T19:06:45.114Z,3.64
2022-12-28T19:08:17.069Z,3.67
2022-12-28T19:10:13.431Z,3.72
2022-12-28T19:11:45.879Z,3.75
2022-12-28T19:13:18.330Z,3.78
2022-12-28T19:14:50.307Z,3.80
2022-12-28T19:16:30.585Z,3.81
2022-12-28T19:18:03.361Z,3.84
2022-12-28T19:19:35.460Z,3.84
2022-12-28T19:21:32.373Z,3.92
2022-12-28T19:23:04.498Z,3.87
2022-12-28T19:24:36.515Z,3.85
2022-12-28T19:26:08.619Z,3.80
2022-12-28T19:27:40.755Z,3.88
2022-12-28T19:29:13.821Z,3.91
2022-12-28T19:30:45.893Z,3.93
2022-12-28T19:32:17.998Z,3.94
2022-12-28T19:33:50.148Z,3.94
2022-12-28T19:35:22.295Z,3.91
2022-12-28T19:36:54.365Z,3.90
2022-12-28T19:38:26.784Z,3.85
2022-12-28T19:39:58.973Z,3.87
2022-12-28T19:41:31.200Z,3.89
2022-12-28T19:43:04.399Z,3.91
2022-12-28T19:44:36.426Z,3.85
2022-12-28T19:46:12.785Z,3.90
2022-12-28T19:47:44.957Z,3.83
2022-12-28T19:49:16.973Z,3.85
2022-12-28T19:50:49.177Z,3.86
2022-12-28T19:52:21.156Z,3.86
2022-12-28T19:53:54.610Z,3.85
2022-12-28T20:58:39.635Z,3.96
2022-12-28T21:00:12.321Z,3.92
2022-12-28T21:01:44.634Z,3.92
2022-12-28T21:03:16.707Z,3.94
2022-12-28T21:04:48.784Z,3.95
2022-12-28T21:06:20.778Z,3.95
2022-12-28T21:07:52.854Z,3.96
2022-12-28T21:09:24.947Z,3.97
2022-12-28T21:10:57.242Z,3.98
2022-12-28T21:12:29.411Z,3.95
2022-12-28T21:14:01.683Z,3.98
2022-12-28T21:15:33.760Z,4.00
2022-12-28T21:17:05.821Z,4.03
2022-12-28T21:18:38.072Z,4.04
2022-12-28T21:20:10.784Z,4.06
2022-12-28T21:21:42.888Z,4.04
2022-12-28T21:23:15.628Z,3.99
2022-12-28T21:24:47.637Z,3.94
2022-12-28T21:26:21.221Z,3.91
2022-12-28T21:27:55.768Z,3.94
2022-12-28T21:29:27.978Z,3.91
2022-12-28T21:31:03.326Z,3.84
2022-12-28T21:32:35.332Z,3.85
2022-12-28T21:36:00.059Z,3.91
2022-12-28T21:37:35.244Z,3.87
2022-12-28T21:39:07.330Z,3.85
2022-12-28T21:40:39.351Z,3.85
2022-12-28T21:42:11.443Z,3.85
2022-12-28T21:43:43.532Z,3.88
2022-12-28T21:45:15.701Z,3.90
2022-12-28T21:46:52.072Z,3.96
2022-12-28T21:48:24.154Z,3.94
2022-12-28T21:49:56.360Z,3.95
2022-12-28T21:51:38.935Z,3.97
2022-12-28T21:53:11.011Z,3.93
2022-12-28T21:54:43.051Z,3.96
2022-12-28T21:56:15.077Z,3.95
2022-12-28T21:57:51.655Z,3.96
2022-12-28T21:59:25.621Z,3.91
2022-12-28T22:01:17.177Z,3.87
2022-12-28T22:03:09.679Z,3.82
2022-12-28T22:05:03.226Z,3.81
2022-12-28T22:06:35.629Z,3.77
2022-12-28T22:08:26.054Z,3.75
2022-12-28T22:10:16.550Z,3.74
2022-12-28T22:12:07.123Z,3.72
2022-12-28T22:13:39.709Z,3.73
2022-12-28T22:15:38.821Z,3.73
2022-12-28T22:17:14.291Z,3.70
2022-12-28T22:19:03.530Z,3.71
2022-12-28T22:20:37.588Z,3.76
2022-12-28T22:22:09.604Z,3.73
2022-12-28T22:23:41.805Z,3.72
2022-12-28T22:25:14.176Z,3.70
2022-12-28T22:26:46.742Z,3.66
2022-12-28T22:28:18.901Z,3.65
2022-12-28T22:29:50.971Z,3.66
2022-12-28T22:31:23.005Z,3.65
2022-12-28T22:32:55.419Z,3.63
2022-12-28T22:34:27.418Z,3.63
2022-12-28T22:36:14.392Z,3.64
2022-12-28T22:37:46.431Z,3.58
2022-12-28T22:39:18.493Z,3.55
2022-12-28T22:40:59.971Z,3.56
2022-12-28T22:42:32.299Z,3.47
2022-12-28T22:44:04.350Z,3.39
2022-12-28T22:45:36.446Z,3.36
2022-12-28T22:47:08.994Z,3.33
2022-12-28T22:48:41.087Z,3.32
2022-12-28T22:50:15.094Z,3.31
2022-12-28T22:51:48.100Z,3.30
2022-12-28T22:53:20.171Z,3.26
2022-12-28T22:54:52.140Z,3.21
2022-12-28T22:56:24.173Z,3.20
2022-12-28T22:57:56.232Z,3.14
2022-12-28T22:59:28.284Z,3.13
2022-12-28T23:01:06.665Z,3.15
2022-12-28T23:02:38.929Z,3.07
2022-12-28T23:04:11.046Z,2.98
2022-12-28T23:05:51.071Z,2.91
2022-12-28T23:07:23.153Z,2.78
2022-12-28T23:08:55.178Z,2.71
2022-12-28T23:10:27.227Z,2.70
2022-12-28T23:11:59.330Z,2.67
2022-12-28T23:13:33.690Z,2.68
2022-12-28T23:15:22.367Z,2.67
2022-12-28T23:16:54.952Z,2.66
2022-12-28T23:18:45.495Z,2.61
2022-12-28T23:20:36.720Z,2.58
2022-12-28T23:22:34.023Z,2.54
2022-12-28T23:24:28.039Z,2.45
2022-12-28T23:26:19.808Z,2.35
2022-12-28T23:27:52.296Z,2.25
2022-12-28T23:29:30.407Z,2.23